createdAt,value
2018-02-18T00:00:04.240Z,46.90
2018-02-18T00:01:04.245Z,44.80
2018-02-18T00:02:04.256Z,49.70
2018-02-18T00:03:04.258Z,53.50
2018-02-18T00:04:04.332Z,52.70
2018-02-18T00:05:04.285Z,51.30
2018-02-18T00:06:04.371Z,50.30
2018-02-18T00:07:04.293Z,52.20
2018-02-18T00:08:04.290Z,51.00
2018-02-18T00:09:04.295Z,49.70
2018-02-18T00:10:04.289Z,50.20
2018-02-18T00:11:04.294Z,52.20
2018-02-18T00:12:04.301Z,52.00
2018-02-18T00:13:04.300Z,52.20
2018-02-18T00:14:04.377Z,50.50
2018-02-18T00:15:04.314Z,52.50
2018-02-18T00:16:04.311Z,52.80
2018-02-18T00:17:04.322Z,52.70
2018-02-18T00:18:04.318Z,50.60
2018-02-18T00:19:04.312Z,50.30
2018-02-18T00:20:04.336Z,50.50
2018-02-18T00:21:04.332Z,51.10
2018-02-18T00:22:04.332Z,49.40
2018-02-18T00:23:04.337Z,51.80
2018-02-18T00:24:04.344Z,50.60
2018-02-18T00:25:04.348Z,46.40
2018-02-18T00:26:04.354Z,47.80
2018-02-18T00:27:04.357Z,48.30
2018-02-18T00:28:04.364Z,45.80
2018-02-18T00:29:04.360Z,54.50
2018-02-18T00:30:04.370Z,49.70
2018-02-18T00:31:04.376Z,48.80
2018-02-18T00:32:04.381Z,50.30
2018-02-18T00:33:04.382Z,49.60
2018-02-18T00:34:04.390Z,50.80
2018-02-18T00:35:04.384Z,48.50
2018-02-18T00:36:04.395Z,53.20
2018-02-18T00:37:04.397Z,50.60
2018-02-18T00:38:04.405Z,48.10
2018-02-18T00:39:04.414Z,46.50
2018-02-18T00:40:04.423Z,47.40
2018-02-18T00:41:04.428Z,45.60
2018-02-18T00:42:04.464Z,47.90
2018-02-18T00:43:04.442Z,47.20
2018-02-18T00:44:04.424Z,47.30
2018-02-18T00:45:04.433Z,48.60
2018-02-18T00:46:04.434Z,48.30
2018-02-18T00:47:04.437Z,47.70
2018-02-18T00:48:04.467Z,51.50
2018-02-18T00:49:04.464Z,53.20
2018-02-18T00:50:04.457Z,49.10
2018-02-18T00:51:04.461Z,46.60
2018-02-18T00:52:04.453Z,47.10
2018-02-18T00:53:04.466Z,46.90
2018-02-18T00:54:04.485Z,44.80
2018-02-18T00:55:04.545Z,46.30
2018-02-18T00:56:04.501Z,46.50
2018-02-18T00:57:04.491Z,46.80
2018-02-18T00:58:04.503Z,45.70
2018-02-18T00:59:04.487Z,46.60
2018-02-18T01:00:04.485Z,47.60
2018-02-18T01:01:04.555Z,47.80
2018-02-18T01:02:04.519Z,46.50
2018-02-18T01:03:04.508Z,45.60
2018-02-18T01:04:04.512Z,46.60
2018-02-18T01:05:04.510Z,44.90
2018-02-18T01:06:04.532Z,45.50
2018-02-18T01:07:04.509Z,44.40
2018-02-18T01:08:04.576Z,45.00
2018-02-18T01:09:04.549Z,42.80
2018-02-18T01:10:04.544Z,42.70
2018-02-18T01:11:04.525Z,41.90
2018-02-18T01:12:04.547Z,43.70
2018-02-18T01:13:04.671Z,43.20
2018-02-18T01:14:04.591Z,42.00
2018-02-18T01:15:04.562Z,43.50
2018-02-18T01:16:04.562Z,49.50
2018-02-18T01:17:04.551Z,48.00
2018-02-18T01:18:05.213Z,48.00
2018-02-18T01:19:04.563Z,43.10
2018-02-18T01:20:04.615Z,43.60
2018-02-18T01:21:04.570Z,43.60
2018-02-18T01:22:04.577Z,45.30
2018-02-18T01:23:04.571Z,42.60
2018-02-18T01:24:04.594Z,45.00
2018-02-18T01:25:04.602Z,45.00
2018-02-18T01:26:04.576Z,47.40
2018-02-18T01:27:04.599Z,45.90
2018-02-18T01:28:04.589Z,43.60
2018-02-18T01:29:04.634Z,43.20
2018-02-18T01:30:04.596Z,44.90
2018-02-18T01:31:04.610Z,44.90
2018-02-18T01:32:04.626Z,48.40
2018-02-18T01:33:04.629Z,47.20
2018-02-18T01:34:04.630Z,46.20
2018-02-18T01:35:04.637Z,48.90
2018-02-18T01:36:04.673Z,47.10
2018-02-18T01:37:04.656Z,46.00
2018-02-18T01:38:04.663Z,43.60
2018-02-18T01:39:04.690Z,45.60
2018-02-18T01:40:04.659Z,44.80
2018-02-18T01:41:04.669Z,43.20
2018-02-18T01:42:04.664Z,44.30
2018-02-18T01:43:04.672Z,46.40
2018-02-18T01:44:04.638Z,43.00
2018-02-18T01:45:04.682Z,46.30
2018-02-18T01:46:04.707Z,45.50
2018-02-18T01:47:04.665Z,45.20
2018-02-18T01:48:04.653Z,45.70
2018-02-18T01:49:04.675Z,45.70
2018-02-18T01:50:04.666Z,44.70
2018-02-18T01:51:04.664Z,44.80
2018-02-18T01:52:04.728Z,46.60
2018-02-18T01:53:04.723Z,46.00
2018-02-18T01:54:04.697Z,45.50
2018-02-18T01:55:04.681Z,46.20
2018-02-18T01:56:04.713Z,46.40
2018-02-18T01:57:04.688Z,46.60
2018-02-18T01:58:04.693Z,47.30
2018-02-18T01:59:04.698Z,46.00
2018-02-18T02:00:04.710Z,46.70
2018-02-18T02:01:04.702Z,47.20
2018-02-18T02:02:04.740Z,51.40
2018-02-18T02:03:04.720Z,56.00
2018-02-18T02:04:04.717Z,55.20
2018-02-18T02:05:04.751Z,46.50
2018-02-18T02:06:04.746Z,46.70
2018-02-18T02:07:04.739Z,46.80
2018-02-18T02:08:04.740Z,44.50
2018-02-18T02:09:04.746Z,46.50
2018-02-18T02:10:04.750Z,46.30
2018-02-18T02:11:04.774Z,45.90
2018-02-18T02:12:04.867Z,45.00
2018-02-18T02:13:04.799Z,45.50
2018-02-18T02:14:04.749Z,46.50
2018-02-18T02:15:04.878Z,45.00
2018-02-18T02:16:04.807Z,46.50
2018-02-18T02:17:04.758Z,72.90
2018-02-18T02:18:04.819Z,69.80
2018-02-18T02:19:04.777Z,117.80
2018-02-18T02:20:04.779Z,75.00
2018-02-18T02:21:04.787Z,59.60
2018-02-18T02:22:04.833Z,63.80
2018-02-18T02:23:04.822Z,58.70
2018-02-18T02:24:04.845Z,62.20
2018-02-18T02:25:04.789Z,68.80
2018-02-18T02:26:04.816Z,71.20
2018-02-18T02:27:04.863Z,65.70
2018-02-18T02:28:04.810Z,63.50
2018-02-18T02:29:04.831Z,65.90
2018-02-18T02:30:04.841Z,69.50
2018-02-18T02:31:04.825Z,59.70
2018-02-18T02:32:04.823Z,62.00
2018-02-18T02:33:04.854Z,66.00
2018-02-18T02:34:04.848Z,56.40
2018-02-18T02:35:04.838Z,47.20
2018-02-18T02:36:04.845Z,48.00
2018-02-18T02:37:04.867Z,46.70
2018-02-18T02:38:04.851Z,45.70
2018-02-18T02:39:04.848Z,46.30
2018-02-18T02:40:04.861Z,47.10
2018-02-18T02:41:04.870Z,47.30
2018-02-18T02:42:04.857Z,46.80
2018-02-18T02:43:04.991Z,47.50
2018-02-18T02:44:04.883Z,46.30
2018-02-18T02:45:04.858Z,44.50
2018-02-18T02:46:04.886Z,47.10
2018-02-18T02:47:04.870Z,47.50
2018-02-18T02:48:04.881Z,46.20
2018-02-18T02:49:04.908Z,44.60
2018-02-18T02:50:04.887Z,45.50
2018-02-18T02:51:04.896Z,45.40
2018-02-18T02:52:04.907Z,45.30
2018-02-18T02:53:04.882Z,45.00
2018-02-18T02:54:04.908Z,46.80
2018-02-18T02:55:04.899Z,46.80
2018-02-18T02:56:04.939Z,44.70
2018-02-18T02:57:04.904Z,45.20
2018-02-18T02:58:04.924Z,46.00
2018-02-18T02:59:04.912Z,45.00
2018-02-18T03:00:04.923Z,44.80
2018-02-18T03:01:04.926Z,46.40
2018-02-18T03:02:04.930Z,45.70
2018-02-18T03:03:04.950Z,44.30
2018-02-18T03:04:04.934Z,45.40
2018-02-18T03:05:04.934Z,46.60
2018-02-18T03:06:04.942Z,45.90
2018-02-18T03:07:04.944Z,46.20
2018-02-18T03:08:04.980Z,45.80
2018-02-18T03:09:04.974Z,46.30
2018-02-18T03:10:04.965Z,46.10
2018-02-18T03:11:05.061Z,45.00
2018-02-18T03:12:04.995Z,44.30
2018-02-18T03:13:04.955Z,47.50
2018-02-18T03:14:04.990Z,46.90
2018-02-18T03:15:04.972Z,48.10
2018-02-18T03:16:04.996Z,51.60
2018-02-18T03:17:04.994Z,47.30
2018-02-18T03:18:04.994Z,46.60
2018-02-18T03:19:04.969Z,47.40
2018-02-18T03:20:04.998Z,45.90
2018-02-18T03:21:05.003Z,46.90
2018-02-18T03:22:05.023Z,44.30
2018-02-18T03:23:05.000Z,46.30
2018-02-18T03:24:05.009Z,46.80
2018-02-18T03:25:05.003Z,45.10
2018-02-18T03:26:05.009Z,45.50
2018-02-18T03:27:05.013Z,45.70
2018-02-18T03:28:04.998Z,45.30
2018-02-18T03:29:05.019Z,45.30
2018-02-18T03:30:05.013Z,48.30
2018-02-18T03:31:05.016Z,46.20
2018-02-18T03:32:05.024Z,45.30
2018-02-18T03:33:05.024Z,45.00
2018-02-18T03:34:05.029Z,45.20
2018-02-18T03:35:05.027Z,43.50
2018-02-18T03:36:05.028Z,44.50
2018-02-18T03:37:05.082Z,49.00
2018-02-18T03:38:05.079Z,51.40
2018-02-18T03:39:05.036Z,47.10
2018-02-18T03:40:05.044Z,45.80
2018-02-18T03:41:05.057Z,48.80
2018-02-18T03:42:05.077Z,52.80
2018-02-18T03:43:05.062Z,45.40
2018-02-18T03:44:05.086Z,42.70
2018-02-18T03:45:05.057Z,45.80
2018-02-18T03:46:05.070Z,44.40
2018-02-18T03:47:05.141Z,41.10
2018-02-18T03:48:05.072Z,41.50
2018-02-18T03:49:05.093Z,43.10
2018-02-18T03:50:05.092Z,42.80
2018-02-18T03:51:05.089Z,43.50
2018-02-18T03:52:05.211Z,42.70
2018-02-18T03:53:05.206Z,42.80
2018-02-18T03:54:05.090Z,43.60
2018-02-18T03:55:05.129Z,44.60
2018-02-18T03:56:05.099Z,42.10
2018-02-18T03:57:05.114Z,41.50
2018-02-18T03:58:05.099Z,43.20
2018-02-18T03:59:05.106Z,42.80
2018-02-18T04:00:05.112Z,43.60
2018-02-18T04:01:05.120Z,41.40
2018-02-18T04:02:05.153Z,40.90
2018-02-18T04:03:05.120Z,41.00
2018-02-18T04:04:05.135Z,41.50
2018-02-18T04:05:05.156Z,39.60
2018-02-18T04:06:05.123Z,38.90
2018-02-18T04:07:05.137Z,41.20
2018-02-18T04:08:05.155Z,40.50
2018-02-18T04:09:05.150Z,41.70
2018-02-18T04:10:05.149Z,40.50
2018-02-18T04:11:05.160Z,42.30
2018-02-18T04:12:05.159Z,42.40
2018-02-18T04:13:05.198Z,41.60
2018-02-18T04:14:05.152Z,40.60
2018-02-18T04:15:05.175Z,41.80
2018-02-18T04:16:05.170Z,41.20
2018-02-18T04:17:05.208Z,43.70
2018-02-18T04:18:05.194Z,41.80
2018-02-18T04:19:05.157Z,40.60
2018-02-18T04:20:05.197Z,41.00
2018-02-18T04:21:05.171Z,40.70
2018-02-18T04:22:05.220Z,42.60
2018-02-18T04:23:05.187Z,41.60
2018-02-18T04:24:05.232Z,41.40
2018-02-18T04:25:05.196Z,43.50
2018-02-18T04:26:05.186Z,41.10
2018-02-18T04:27:05.197Z,40.30
2018-02-18T04:28:05.205Z,44.00
2018-02-18T04:29:05.212Z,41.30
2018-02-18T04:30:05.225Z,40.50
2018-02-18T04:31:05.212Z,43.30
2018-02-18T04:32:05.210Z,40.80
2018-02-18T04:33:05.217Z,41.00
2018-02-18T04:34:05.213Z,41.60
2018-02-18T04:35:05.221Z,40.70
2018-02-18T04:36:05.232Z,41.70
2018-02-18T04:37:05.238Z,41.20
2018-02-18T04:38:05.244Z,40.80
2018-02-18T04:39:05.261Z,41.10
2018-02-18T04:40:05.286Z,43.00
2018-02-18T04:41:05.242Z,40.30
2018-02-18T04:42:05.250Z,41.80
2018-02-18T04:43:05.243Z,41.50
2018-02-18T04:44:05.236Z,43.20
2018-02-18T04:45:05.288Z,40.60
2018-02-18T04:46:05.248Z,40.70
2018-02-18T04:47:05.244Z,40.90
2018-02-18T04:48:05.249Z,41.30
2018-02-18T04:49:05.255Z,41.00
2018-02-18T04:50:05.403Z,41.10
2018-02-18T04:51:05.415Z,41.60
2018-02-18T04:52:05.258Z,40.50
2018-02-18T04:53:05.270Z,39.60
2018-02-18T04:54:05.283Z,40.80
2018-02-18T04:55:05.262Z,40.50
2018-02-18T04:56:05.272Z,41.50
2018-02-18T04:57:05.267Z,41.30
2018-02-18T04:58:05.273Z,42.10
2018-02-18T04:59:05.351Z,40.30
2018-02-18T05:00:05.327Z,41.90
2018-02-18T05:01:05.296Z,40.20
2018-02-18T05:02:05.303Z,40.60
2018-02-18T05:03:05.298Z,41.90
2018-02-18T05:04:05.320Z,41.60
2018-02-18T05:05:05.345Z,40.50
2018-02-18T05:06:05.313Z,42.80
2018-02-18T05:07:05.323Z,41.40
2018-02-18T05:08:05.328Z,41.30
2018-02-18T05:09:05.320Z,41.80
2018-02-18T05:10:05.401Z,41.60
2018-02-18T05:11:05.357Z,42.80
2018-02-18T05:12:05.408Z,42.50
2018-02-18T05:13:05.336Z,42.20
2018-02-18T05:14:05.336Z,42.80
2018-02-18T05:15:05.318Z,41.50
2018-02-18T05:16:05.333Z,41.50
2018-02-18T05:17:05.329Z,43.20
2018-02-18T05:18:05.395Z,41.90
2018-02-18T05:19:05.333Z,40.40
2018-02-18T05:20:05.361Z,42.70
2018-02-18T05:21:05.346Z,41.00
2018-02-18T05:22:06.209Z,42.60
2018-02-18T05:23:05.364Z,41.20
2018-02-18T05:24:05.347Z,41.80
2018-02-18T05:25:05.376Z,41.50
2018-02-18T05:26:05.362Z,41.80
2018-02-18T05:27:05.378Z,41.10
2018-02-18T05:28:05.372Z,42.90
2018-02-18T05:29:05.388Z,42.50
2018-02-18T05:30:05.389Z,42.10
2018-02-18T05:31:05.405Z,41.90
2018-02-18T05:32:05.370Z,42.30
2018-02-18T05:33:05.459Z,42.50
2018-02-18T05:34:05.378Z,43.00
2018-02-18T05:35:05.746Z,41.60
2018-02-18T05:36:05.403Z,40.60
2018-02-18T05:37:05.407Z,40.40
2018-02-18T05:38:05.390Z,39.90
2018-02-18T05:39:05.513Z,40.20
2018-02-18T05:40:06.205Z,39.70
2018-02-18T05:41:05.405Z,40.90
2018-02-18T05:42:05.420Z,39.50
2018-02-18T05:43:05.416Z,41.40
2018-02-18T05:44:05.405Z,42.30
2018-02-18T05:45:05.437Z,42.50
2018-02-18T05:46:05.428Z,42.10
2018-02-18T05:47:05.543Z,42.90
2018-02-18T05:48:05.418Z,43.10
2018-02-18T05:49:05.462Z,43.60
2018-02-18T05:50:05.420Z,43.40
2018-02-18T05:51:05.454Z,46.30
2018-02-18T05:52:05.427Z,46.40
2018-02-18T05:53:05.521Z,46.10
2018-02-18T05:54:05.440Z,45.40
2018-02-18T05:55:05.466Z,43.70
2018-02-18T05:56:05.443Z,44.80
2018-02-18T05:57:05.774Z,44.80
2018-02-18T05:58:05.464Z,43.50
2018-02-18T05:59:05.598Z,43.40
2018-02-18T06:00:05.479Z,44.80
2018-02-18T06:01:05.458Z,43.40
2018-02-18T06:02:05.456Z,43.70
2018-02-18T06:03:05.459Z,43.30
2018-02-18T06:04:05.466Z,44.10
2018-02-18T06:05:05.522Z,43.60
2018-02-18T06:06:05.470Z,42.30
2018-02-18T06:07:05.514Z,42.60
2018-02-18T06:08:05.484Z,43.90
2018-02-18T06:09:05.551Z,42.60
2018-02-18T06:10:05.471Z,41.70
2018-02-18T06:11:05.604Z,42.90
2018-02-18T06:12:05.479Z,43.00
2018-02-18T06:13:05.505Z,41.10
2018-02-18T06:14:05.576Z,41.10
2018-02-18T06:15:05.535Z,41.70
2018-02-18T06:16:05.500Z,41.10
2018-02-18T06:17:05.595Z,43.40
2018-02-18T06:18:05.489Z,41.80
2018-02-18T06:19:05.554Z,41.90
2018-02-18T06:20:05.541Z,41.90
2018-02-18T06:21:05.537Z,40.20
2018-02-18T06:22:05.523Z,41.40
2018-02-18T06:23:05.612Z,41.90
2018-02-18T06:24:05.514Z,40.80
2018-02-18T06:25:05.609Z,40.40
2018-02-18T06:26:05.508Z,42.00
2018-02-18T06:27:05.546Z,41.70
2018-02-18T06:28:05.519Z,40.00
2018-02-18T06:29:05.690Z,39.60
2018-02-18T06:30:05.532Z,40.80
2018-02-18T06:31:05.546Z,40.10
2018-02-18T06:32:05.534Z,39.90
2018-02-18T06:33:05.633Z,39.00
2018-02-18T06:34:05.599Z,40.30
2018-02-18T06:35:05.590Z,38.40
2018-02-18T06:36:05.540Z,41.20
2018-02-18T06:37:05.759Z,40.60
2018-02-18T06:38:05.598Z,40.80
2018-02-18T06:39:05.747Z,41.40
2018-02-18T06:40:05.548Z,40.90
2018-02-18T06:41:05.565Z,39.80
2018-02-18T06:42:05.558Z,39.90
2018-02-18T06:43:06.288Z,39.00
2018-02-18T06:44:05.576Z,39.10
2018-02-18T06:45:05.808Z,38.60
2018-02-18T06:46:05.575Z,38.70
2018-02-18T06:47:05.771Z,40.00
2018-02-18T06:48:05.579Z,39.00
2018-02-18T06:49:05.876Z,38.20
2018-02-18T06:50:05.575Z,38.40
2018-02-18T06:51:05.775Z,38.10
2018-02-18T06:52:05.612Z,38.10
2018-02-18T06:53:05.949Z,36.50
2018-02-18T06:54:05.604Z,36.70
2018-02-18T06:55:05.987Z,38.10
2018-02-18T06:56:05.590Z,37.70
2018-02-18T06:57:05.918Z,38.10
2018-02-18T06:58:05.643Z,36.40
2018-02-18T06:59:05.623Z,36.60
2018-02-18T07:00:05.689Z,36.30
2018-02-18T07:01:05.851Z,37.00
2018-02-18T07:02:05.627Z,37.70
2018-02-18T07:03:05.744Z,36.20
2018-02-18T07:04:05.622Z,36.20
2018-02-18T07:06:05.636Z,38.10
2018-02-18T07:07:06.007Z,37.90
2018-02-18T07:08:05.648Z,37.90
2018-02-18T07:09:05.745Z,37.10
2018-02-18T07:10:05.643Z,36.80
2018-02-18T07:11:05.743Z,36.60
2018-02-18T07:12:05.668Z,37.70
2018-02-18T07:13:05.816Z,36.70
2018-02-18T07:14:05.681Z,38.50
2018-02-18T07:15:06.068Z,37.80
2018-02-18T07:16:05.653Z,38.00
2018-02-18T07:17:05.660Z,36.00
2018-02-18T07:18:05.690Z,37.20
2018-02-18T07:19:05.717Z,38.30
2018-02-18T07:20:05.740Z,38.20
2018-02-18T07:21:05.688Z,37.60
2018-02-18T07:22:05.673Z,38.00
2018-02-18T07:23:05.776Z,38.60
2018-02-18T07:24:05.723Z,37.90
2018-02-18T07:25:05.694Z,36.40
2018-02-18T07:26:05.687Z,37.40
2018-02-18T07:27:05.691Z,37.90
2018-02-18T07:28:05.848Z,37.40
2018-02-18T07:29:05.709Z,36.60
2018-02-18T07:30:05.721Z,37.40
2018-02-18T07:31:05.727Z,37.80
2018-02-18T07:32:05.727Z,35.50
2018-02-18T07:33:05.709Z,34.60
2018-02-18T07:34:05.727Z,35.10
2018-02-18T07:35:05.744Z,35.40
2018-02-18T07:36:05.746Z,35.30
2018-02-18T07:37:05.732Z,36.50
2018-02-18T07:38:05.745Z,36.30
2018-02-18T07:39:05.744Z,35.20
2018-02-18T07:40:05.734Z,36.90
2018-02-18T07:41:05.742Z,37.20
2018-02-18T07:42:05.751Z,37.10
2018-02-18T07:43:05.829Z,35.50
2018-02-18T07:44:05.750Z,36.00
2018-02-18T07:45:05.746Z,36.30
2018-02-18T07:46:05.761Z,36.90
2018-02-18T07:47:05.768Z,37.10
2018-02-18T07:48:05.756Z,37.60
2018-02-18T07:49:05.946Z,37.00
2018-02-18T07:50:05.830Z,37.60
2018-02-18T07:51:05.769Z,36.30
2018-02-18T07:52:05.782Z,37.90
2018-02-18T07:53:05.821Z,36.20
2018-02-18T07:54:05.785Z,37.00
2018-02-18T07:55:05.877Z,36.60
2018-02-18T07:56:05.792Z,35.50
2018-02-18T07:57:05.823Z,35.40
2018-02-18T07:58:05.820Z,34.40
2018-02-18T07:59:05.815Z,35.70
2018-02-18T08:00:05.821Z,35.50
2018-02-18T08:01:05.823Z,36.60
2018-02-18T08:02:05.817Z,34.60
2018-02-18T08:03:05.827Z,35.20
2018-02-18T08:04:05.839Z,34.30
2018-02-18T08:05:05.831Z,34.40
2018-02-18T08:06:05.849Z,35.10
2018-02-18T08:07:05.822Z,34.10
2018-02-18T08:08:05.827Z,33.20
2018-02-18T08:09:05.831Z,34.70
2018-02-18T08:10:05.833Z,34.90
2018-02-18T08:11:05.841Z,33.20
2018-02-18T08:12:05.844Z,33.40
2018-02-18T08:13:05.882Z,34.10
2018-02-18T08:14:05.842Z,32.60
2018-02-18T08:15:05.873Z,32.40
2018-02-18T08:16:05.913Z,31.80
2018-02-18T08:17:05.860Z,32.00
2018-02-18T08:18:05.882Z,31.00
2018-02-18T08:19:05.894Z,30.90
2018-02-18T08:20:05.883Z,29.50
2018-02-18T08:21:05.873Z,28.90
2018-02-18T08:22:05.928Z,29.30
2018-02-18T08:23:05.890Z,26.20
2018-02-18T08:24:05.913Z,27.50
2018-02-18T08:25:05.937Z,26.30
2018-02-18T08:26:05.915Z,27.80
2018-02-18T08:27:05.950Z,26.40
2018-02-18T08:28:05.952Z,26.50
2018-02-18T08:29:05.978Z,23.90
2018-02-18T08:30:05.939Z,25.10
2018-02-18T08:31:06.068Z,25.40
2018-02-18T08:32:05.962Z,24.50
2018-02-18T08:33:05.947Z,24.90
2018-02-18T08:34:05.964Z,26.50
2018-02-18T08:35:05.979Z,27.00
2018-02-18T08:36:05.972Z,24.80
2018-02-18T08:37:05.988Z,24.80
2018-02-18T08:38:06.039Z,24.40
2018-02-18T08:39:06.049Z,25.80
2018-02-18T08:40:06.099Z,26.00
2018-02-18T08:41:06.036Z,26.00
2018-02-18T08:42:06.072Z,27.20
2018-02-18T08:43:06.040Z,26.90
2018-02-18T08:44:06.038Z,25.30
2018-02-18T08:45:06.085Z,25.40
2018-02-18T08:46:06.053Z,23.50
2018-02-18T08:47:06.094Z,24.40
2018-02-18T08:48:06.098Z,24.90
2018-02-18T08:49:06.085Z,23.20
2018-02-18T08:50:06.085Z,24.30
2018-02-18T08:51:06.107Z,23.60
2018-02-18T08:52:06.128Z,22.70
2018-02-18T08:53:06.142Z,24.10
2018-02-18T08:54:06.114Z,23.50
2018-02-18T08:55:06.115Z,24.50
2018-02-18T08:56:06.225Z,25.00
2018-02-18T08:57:06.157Z,25.00
2018-02-18T08:58:06.143Z,24.40
2018-02-18T08:59:06.155Z,24.30
2018-02-18T09:00:06.168Z,23.40
2018-02-18T09:01:06.190Z,24.00
2018-02-18T09:02:06.184Z,23.40
2018-02-18T09:03:06.188Z,24.50
2018-02-18T09:04:06.195Z,25.20
2018-02-18T09:05:06.214Z,24.80
2018-02-18T09:06:06.258Z,23.20
2018-02-18T09:07:06.275Z,22.40
2018-02-18T09:08:06.312Z,22.10
2018-02-18T09:09:06.271Z,22.90
2018-02-18T09:10:06.336Z,22.10
2018-02-18T09:11:06.291Z,23.20
2018-02-18T09:12:06.300Z,24.30
2018-02-18T09:13:06.359Z,23.10
2018-02-18T09:14:06.372Z,23.40
2018-02-18T09:15:06.355Z,22.50
2018-02-18T09:16:06.347Z,22.00
2018-02-18T09:17:06.365Z,22.50
2018-02-18T09:18:06.395Z,21.00
2018-02-18T09:19:06.378Z,22.70
2018-02-18T09:20:06.545Z,21.30
2018-02-18T09:21:06.423Z,21.30
2018-02-18T09:22:06.422Z,23.10
2018-02-18T09:23:06.443Z,22.80
2018-02-18T09:24:06.455Z,23.00
2018-02-18T09:25:06.469Z,22.90
2018-02-18T09:26:06.481Z,22.80
2018-02-18T09:27:06.507Z,23.30
2018-02-18T09:28:06.549Z,21.80
2018-02-18T09:29:06.536Z,22.10
2018-02-18T09:30:06.603Z,21.70
2018-02-18T09:31:06.569Z,21.30
2018-02-18T09:32:06.580Z,22.20
2018-02-18T09:33:06.611Z,22.30
2018-02-18T09:34:06.626Z,21.70
2018-02-18T09:35:06.625Z,21.10
2018-02-18T09:36:06.633Z,22.70
2018-02-18T09:37:06.647Z,21.70
2018-02-18T09:38:06.705Z,21.60
2018-02-18T09:39:06.721Z,22.00
2018-02-18T09:40:06.786Z,22.40
2018-02-18T09:41:06.732Z,21.20
2018-02-18T09:42:06.802Z,21.10
2018-02-18T09:43:06.752Z,20.80
2018-02-18T09:44:06.797Z,21.30
2018-02-18T09:45:06.794Z,20.70
2018-02-18T09:46:07.206Z,21.10
2018-02-18T09:47:06.825Z,21.20
2018-02-18T09:48:06.882Z,21.40
2018-02-18T09:49:06.854Z,21.70
2018-02-18T09:50:06.916Z,21.30
2018-02-18T09:51:06.886Z,21.90
2018-02-18T09:52:06.897Z,21.30
2018-02-18T09:53:06.925Z,21.50
2018-02-18T09:54:06.940Z,20.70
2018-02-18T09:55:06.959Z,20.60
2018-02-18T09:56:06.984Z,20.40
2018-02-18T09:57:07.003Z,21.30
2018-02-18T09:58:07.026Z,19.60
2018-02-18T09:59:07.028Z,20.20
2018-02-18T10:00:07.047Z,21.30
2018-02-18T10:01:07.073Z,20.10
2018-02-18T10:02:07.086Z,20.20
2018-02-18T10:03:07.106Z,20.30
2018-02-18T10:04:07.117Z,20.60
2018-02-18T10:05:07.124Z,19.60
2018-02-18T10:06:07.149Z,19.80
2018-02-18T10:07:07.169Z,21.80
2018-02-18T10:08:07.185Z,22.90
2018-02-18T10:09:07.202Z,20.20
2018-02-18T10:10:07.246Z,21.00
2018-02-18T10:11:07.247Z,20.80
2018-02-18T10:12:08.238Z,21.40
2018-02-18T10:13:07.290Z,21.60
2018-02-18T10:14:07.292Z,20.50
2018-02-18T10:15:07.300Z,21.80
2018-02-18T10:16:07.329Z,21.10
2018-02-18T10:17:07.338Z,20.80
2018-02-18T10:18:07.361Z,21.40
2018-02-18T10:19:07.378Z,19.90
2018-02-18T10:20:07.397Z,21.80
2018-02-18T10:21:07.424Z,21.50
2018-02-18T10:22:07.506Z,20.80
2018-02-18T10:23:07.446Z,19.10
2018-02-18T10:24:07.482Z,19.30
2018-02-18T10:25:07.475Z,19.20
2018-02-18T10:26:07.501Z,20.90
2018-02-18T10:27:07.523Z,19.70
2018-02-18T10:28:07.532Z,19.80
2018-02-18T10:29:07.547Z,19.70
2018-02-18T10:30:07.565Z,20.00
2018-02-18T10:31:07.577Z,20.80
2018-02-18T10:32:07.643Z,18.90
2018-02-18T10:33:07.642Z,19.70
2018-02-18T10:34:07.632Z,18.20
2018-02-18T10:35:07.651Z,19.30
2018-02-18T10:36:07.684Z,19.70
2018-02-18T10:37:07.690Z,20.30
2018-02-18T10:38:07.699Z,19.30
2018-02-18T10:39:07.751Z,19.40
2018-02-18T10:40:07.757Z,19.60
2018-02-18T10:41:07.810Z,21.10
2018-02-18T10:42:07.842Z,20.40
2018-02-18T10:43:07.798Z,19.70
2018-02-18T10:44:07.825Z,19.20
2018-02-18T10:45:07.839Z,20.70
2018-02-18T10:46:07.848Z,20.60
2018-02-18T10:47:07.859Z,19.70
2018-02-18T10:48:07.893Z,20.50
2018-02-18T10:49:07.926Z,18.70
2018-02-18T10:50:07.913Z,19.70
2018-02-18T10:51:07.934Z,19.00
2018-02-18T10:52:07.965Z,19.10
2018-02-18T10:53:08.066Z,20.50
2018-02-18T10:54:07.985Z,19.70
2018-02-18T10:55:08.000Z,19.80
2018-02-18T10:56:08.034Z,19.30
2018-02-18T10:57:08.107Z,18.30
2018-02-18T10:58:08.066Z,21.00
2018-02-18T10:59:08.079Z,20.60
2018-02-18T11:00:08.093Z,18.70
2018-02-18T11:01:08.107Z,20.40
2018-02-18T11:02:08.134Z,20.20
2018-02-18T11:03:08.592Z,20.50
2018-02-18T11:04:08.154Z,20.70
2018-02-18T11:05:08.187Z,19.00
2018-02-18T11:06:08.205Z,19.90
2018-02-18T11:07:08.584Z,20.00
2018-02-18T11:08:08.245Z,19.30
2018-02-18T11:09:08.248Z,19.40
2018-02-18T11:10:08.275Z,19.50
2018-02-18T11:11:09.272Z,20.60
2018-02-18T11:12:08.310Z,20.30
2018-02-18T11:13:08.532Z,20.00
2018-02-18T11:14:08.346Z,20.40
2018-02-18T11:15:08.722Z,18.60
2018-02-18T11:16:08.386Z,20.30
2018-02-18T11:17:08.702Z,19.70
2018-02-18T11:18:08.408Z,20.30
2018-02-18T11:19:08.771Z,20.10
2018-02-18T11:20:08.448Z,20.80
2018-02-18T11:21:08.732Z,19.90
2018-02-18T11:22:08.476Z,19.70
2018-02-18T11:23:08.753Z,20.20
2018-02-18T11:24:08.521Z,20.00
2018-02-18T11:25:08.726Z,19.90
2018-02-18T11:26:08.543Z,19.70
2018-02-18T11:27:08.572Z,20.50
2018-02-18T11:28:08.593Z,19.30
2018-02-18T11:29:08.832Z,19.80
2018-02-18T11:30:08.644Z,20.40
2018-02-18T11:31:08.901Z,19.20
2018-02-18T11:32:08.663Z,19.20
2018-02-18T11:33:09.342Z,19.40
2018-02-18T11:34:08.691Z,19.40
2018-02-18T11:35:08.923Z,19.20
2018-02-18T11:36:08.735Z,18.70
2018-02-18T11:37:08.856Z,17.40
2018-02-18T11:38:08.760Z,18.40
2018-02-18T11:40:08.800Z,19.10
2018-02-18T11:41:08.990Z,19.30
2018-02-18T11:42:08.904Z,19.40
2018-02-18T11:43:09.044Z,19.60
2018-02-18T11:44:08.878Z,19.70
2018-02-18T11:45:09.855Z,19.90
2018-02-18T11:46:08.917Z,19.70
2018-02-18T11:47:08.991Z,18.60
2018-02-18T11:48:08.964Z,18.20
2018-02-18T11:49:08.973Z,19.60
2018-02-18T11:50:08.988Z,18.10
2018-02-18T11:51:09.033Z,19.10
2018-02-18T11:52:09.023Z,19.90
2018-02-18T11:53:09.137Z,19.40
2018-02-18T11:54:09.076Z,18.90
2018-02-18T11:55:09.118Z,19.90
2018-02-18T11:56:09.095Z,20.50
2018-02-18T11:57:09.162Z,20.00
2018-02-18T11:58:09.135Z,20.80
2018-02-18T11:59:09.158Z,19.40
2018-02-18T12:00:09.174Z,20.40
2018-02-18T12:01:09.212Z,19.90
2018-02-18T12:02:09.197Z,20.40
2018-02-18T12:03:09.253Z,20.10
2018-02-18T12:04:09.235Z,18.20
2018-02-18T12:06:09.279Z,19.10
2018-02-18T12:07:09.306Z,18.70
2018-02-18T12:08:09.306Z,19.40
2018-02-18T12:09:09.371Z,19.10
2018-02-18T12:10:09.353Z,19.70
2018-02-18T12:11:09.367Z,18.40
2018-02-18T12:12:09.391Z,18.30
2018-02-18T12:13:09.409Z,19.00
2018-02-18T12:14:09.432Z,19.50
2018-02-18T12:15:09.442Z,19.70
2018-02-18T12:16:09.463Z,19.90
2018-02-18T12:17:09.478Z,21.20
2018-02-18T12:18:09.490Z,20.80
2018-02-18T12:19:09.510Z,20.10
2018-02-18T12:20:09.532Z,21.70
2018-02-18T12:21:09.556Z,20.50
2018-02-18T12:22:09.574Z,20.50
2018-02-18T12:23:09.607Z,19.60
2018-02-18T12:24:09.603Z,20.20
2018-02-18T12:25:09.610Z,19.70
2018-02-18T12:26:09.648Z,20.30
2018-02-18T12:27:09.647Z,19.50
2018-02-18T12:28:09.674Z,20.20
2018-02-18T12:29:09.693Z,20.50
2018-02-18T12:30:09.797Z,20.90
2018-02-18T12:31:09.724Z,19.80
2018-02-18T12:32:09.744Z,21.10
2018-02-18T12:33:09.794Z,20.80
2018-02-18T12:34:09.796Z,20.70
2018-02-18T12:35:09.811Z,20.30
2018-02-18T12:36:09.817Z,20.00
2018-02-18T12:38:09.875Z,20.10
2018-02-18T12:39:09.891Z,20.10
2018-02-18T12:40:09.979Z,20.90
2018-02-18T12:41:09.931Z,20.00
2018-02-18T12:42:09.948Z,20.50
2018-02-18T12:43:09.963Z,19.30
2018-02-18T12:44:09.986Z,18.00
2018-02-18T12:46:10.020Z,19.80
2018-02-18T12:47:10.021Z,19.40
2018-02-18T12:48:10.047Z,20.40
2018-02-18T12:49:10.104Z,19.10
2018-02-18T12:50:10.085Z,17.00
2018-02-18T12:51:10.104Z,19.80
2018-02-18T12:52:10.139Z,19.20
2018-02-18T12:53:10.138Z,20.00
2018-02-18T12:54:10.246Z,20.30
2018-02-18T12:55:10.180Z,19.40
2018-02-18T12:56:10.198Z,19.00
2018-02-18T12:57:10.226Z,19.90